Time;durP1;ratioP1;P1;durP2;ratioP2;P2;SDS_P1;SDS_P2;PMS_P1;PMS_P2;Temp;Humidity;BMP_temperature;BMP_pressure;BME280_temperature;BME280_humidity;BME280_pressure;Samples;Min_cycle;Max_cycle;Signal;HPM_P1;HPM_P2
2022/10/19 00:01:22;;;;;;;1.88;0.85;;;10.40;99.90;;;;;;6240394;23;20386;-79
2022/10/19 00:03:55;;;;;;;1.00;0.80;;;10.40;99.90;;;;;;6248333;23;20416;-79
2022/10/19 00:06:28;;;;;;;1.02;0.93;;;10.50;99.90;;;;;;6240728;22;20390;-79
2022/10/19 00:09:14;;;;;;;1.95;1.15;;;10.50;99.90;;;;;;6238466;23;20750;-79
2022/10/19 00:11:43;;;;;;;0.60;0.60;;;10.40;99.90;;;;;;6240240;22;20397;-79
2022/10/19 00:14:16;;;;;;;1.25;1.20;;;10.30;99.90;;;;;;6238466;23;20400;-79
2022/10/19 00:16:48;;;;;;;2.50;1.30;;;10.30;99.90;;;;;;6240679;22;20397;-79
2022/10/19 00:19:18;;;;;;;0.95;0.95;;;10.20;99.90;;;;;;6240414;22;20389;-79
2022/10/19 00:21:45;;;;;;;1.13;1.05;;;10.20;99.90;;;;;;6248002;22;20866;-79
2022/10/19 00:24:12;;;;;;;1.60;0.90;;;10.10;99.90;;;;;;6237553;23;20393;-79
2022/10/19 00:26:39;;;;;;;0.85;0.85;;;10.10;99.90;;;;;;6239224;23;20710;-79
2022/10/19 00:29:06;;;;;;;1.10;1.10;;;10.10;99.90;;;;;;6250105;23;20443;-79
2022/10/19 00:31:38;;;;;;;1.13;1.13;;;10.00;99.90;;;;;;6241827;22;20449;-79
2022/10/19 00:34:05;;;;;;;1.20;1.10;;;10.00;99.90;;;;;;6240417;23;20390;-79
2022/10/19 00:36:38;;;;;;;0.90;0.90;;;10.00;99.90;;;;;;6242480;22;20870;-79
2022/10/19 00:39:08;;;;;;;1.05;0.93;;;10.00;99.90;;;;;;6236124;23;20884;-79
2022/10/19 00:41:35;;;;;;;1.05;0.85;;;9.90;99.90;;;;;;6240180;23;20404;-79
2022/10/19 00:44:15;;;;;;;1.23;1.17;;;9.90;99.90;;;;;;6241838;22;20703;-79
2022/10/19 00:46:43;;;;;;;1.30;1.20;;;9.90;99.90;;;;;;6240501;23;20874;-79
2022/10/19 00:49:14;;;;;;;1.40;1.30;;;9.90;99.90;;;;;;6252713;22;20431;-79
2022/10/19 00:51:48;;;;;;;1.20;1.10;;;9.80;99.90;;;;;;6242781;22;20393;-79
2022/10/19 00:54:16;;;;;;;0.73;0.73;;;9.80;99.90;;;;;;6251763;22;20443;-79
2022/10/19 00:56:47;;;;;;;0.93;0.93;;;9.70;99.90;;;;;;6240759;22;20396;-79
2022/10/19 00:59:17;;;;;;;1.00;1.00;;;9.70;99.90;;;;;;6242052;22;20512;-79
2022/10/19 01:01:45;;;;;;;0.95;0.85;;;9.80;99.90;;;;;;6240794;23;20390;-79
2022/10/19 01:04:12;;;;;;;0.82;0.73;;;9.80;99.90;;;;;;6249929;23;20769;-79
2022/10/19 01:06:42;;;;;;;1.38;1.17;;;9.70;99.90;;;;;;6240223;23;20923;-79
2022/10/19 01:09:09;;;;;;;1.13;1.02;;;9.60;99.90;;;;;;6242312;23;20488;-79
2022/10/19 01:11:50;;;;;;;0.73;0.73;;;9.60;99.90;;;;;;6240391;23;20408;-79
2022/10/19 01:14:37;;;;;;;0.88;0.88;;;9.50;99.90;;;;;;6241474;23;20393;-79
2022/10/19 01:17:22;;;;;;;0.98;0.98;;;9.50;99.90;;;;;;6242081;22;20717;-79
2022/10/19 01:20:16;;;;;;;0.60;0.60;;;9.40;99.90;;;;;;6240792;23;20444;-79
2022/10/19 01:22:52;;;;;;;1.60;1.40;;;9.50;99.90;;;;;;6240545;23;20385;-78
2022/10/19 01:25:30;;;;;;;1.48;1.38;;;9.50;99.90;;;;;;6241909;23;20667;-79
2022/10/19 01:28:22;;;;;;;1.15;1.15;;;9.50;99.90;;;;;;6239997;23;20413;-79
2022/10/19 01:31:08;;;;;;;0.90;0.90;;;9.40;99.90;;;;;;6242121;23;20386;-79
2022/10/19 01:34:11;;;;;;;0.80;0.80;;;9.40;99.90;;;;;;6241318;23;20459;-79
2022/10/19 01:37:12;;;;;;;0.80;0.80;;;9.30;99.90;;;;;;6240295;23;20401;-79
2022/10/19 01:39:51;;;;;;;2.05;1.25;;;9.40;99.90;;;;;;6118314;23;20444;-79
2022/10/19 01:42:20;;;;;;;1.30;1.17;;;9.50;99.90;;;;;;6118609;23;20393;-79
2022/10/19 01:45:02;;;;;;;0.65;0.60;;;9.60;99.90;;;;;;6118125;23;20403;-79
2022/10/19 01:47:37;;;;;;;1.00;1.00;;;9.70;99.90;;;;;;6128390;23;20883;-79
2022/10/19 01:50:39;;;;;;;1.63;1.10;;;9.80;99.90;;;;;;6094525;23;20877;-79
2022/10/19 01:53:09;;;;;;;1.13;1.10;;;9.70;99.90;;;;;;6115029;23;20444;-79
2022/10/19 01:55:41;;;;;;;0.90;0.90;;;9.70;99.90;;;;;;6118401;23;20428;-79
2022/10/19 01:58:12;;;;;;;2.10;0.93;;;9.70;99.90;;;;;;6118875;23;20463;-79
2022/10/19 02:00:42;;;;;;;1.23;1.02;;;9.60;99.90;;;;;;6118788;23;20404;-79
2022/10/19 02:03:11;;;;;;;1.27;0.80;;;9.60;99.90;;;;;;6127805;23;20432;-79
2022/10/19 02:05:39;;;;;;;1.00;0.85;;;9.60;99.90;;;;;;6094215;23;20451;-79
2022/10/19 02:08:19;;;;;;;1.20;1.08;;;9.60;99.90;;;;;;6117585;23;20400;-79
2022/10/19 02:10:47;;;;;;;1.50;1.05;;;9.50;99.90;;;;;;6118359;23;20400;-79
2022/10/19 02:13:15;;;;;;;1.42;0.98;;;9.50;99.90;;;;;;6117743;23;20400;-79
2022/10/19 02:15:45;;;;;;;1.38;1.27;;;9.60;99.90;;;;;;6157149;23;20396;-79
2022/10/19 02:18:17;;;;;;;1.10;1.10;;;9.40;99.90;;;;;;6251768;22;20420;-79
2022/10/19 02:20:44;;;;;;;1.30;1.20;;;9.40;99.90;;;;;;6242123;22;20444;-79
2022/10/19 02:23:14;;;;;;;1.20;1.10;;;9.40;99.90;;;;;;6240994;22;20432;-79
2022/10/19 02:25:40;;;;;;;1.30;1.27;;;9.40;99.90;;;;;;6240066;23;20435;-79
2022/10/19 02:28:07;;;;;;;1.60;1.50;;;9.40;99.90;;;;;;6241734;23;20534;-79
2022/10/19 02:30:34;;;;;;;1.25;1.15;;;9.40;99.90;;;;;;6240029;23;20381;-79
2022/10/19 02:33:01;;;;;;;1.27;1.25;;;9.40;99.90;;;;;;6248690;23;20385;-79
2022/10/19 02:35:27;;;;;;;1.52;1.42;;;9.50;99.90;;;;;;6251854;23;20386;-79
2022/10/19 02:37:58;;;;;;;1.75;1.63;;;9.60;99.90;;;;;;6241395;23;20453;-79
2022/10/19 02:40:27;;;;;;;0.80;0.80;;;9.60;99.90;;;;;;6240003;23;20385;-79
2022/10/19 02:43:01;;;;;;;0.93;0.90;;;9.60;99.90;;;;;;6241066;22;20409;-79
2022/10/19 02:45:36;;;;;;;6.10;1.10;;;9.70;99.90;;;;;;6249811;23;20386;-79
2022/10/19 02:48:08;;;;;;;1.10;1.05;;;9.70;99.90;;;;;;6241457;22;20394;-79
2022/10/19 02:50:35;;;;;;;0.90;0.90;;;9.80;99.90;;;;;;6240894;22;20620;-79
2022/10/19 02:53:02;;;;;;;1.30;1.20;;;9.80;99.90;;;;;;6240664;22;20463;-79
2022/10/19 02:55:31;;;;;;;1.73;1.00;;;9.70;99.90;;;;;;6239123;23;20450;-79
2022/10/19 02:57:58;;;;;;;1.38;1.27;;;9.70;99.90;;;;;;6240566;23;20964;-79
2022/10/19 03:00:24;;;;;;;1.05;1.05;;;9.60;99.90;;;;;;6241027;23;20932;-79
2022/10/19 03:02:51;;;;;;;1.05;0.85;;;9.40;99.90;;;;;;6239060;23;20720;-79
2022/10/19 03:05:18;;;;;;;1.05;0.93;;;9.40;99.90;;;;;;6240804;23;20397;-79
2022/10/19 03:07:45;;;;;;;0.75;0.75;;;9.40;99.90;;;;;;6241919;23;20394;-79
2022/10/19 03:10:12;;;;;;;1.83;1.30;;;9.40;99.90;;;;;;6241242;22;20869;-79
2022/10/19 03:12:39;;;;;;;0.93;0.93;;;9.40;99.90;;;;;;6241092;23;20397;-79
2022/10/19 03:15:07;;;;;;;0.98;0.85;;;9.50;99.90;;;;;;6239255;23;20413;-79
2022/10/19 03:17:34;;;;;;;0.98;0.98;;;9.60;99.90;;;;;;6241453;22;20389;-79
2022/10/19 03:20:10;;;;;;;3.60;1.20;;;9.70;99.90;;;;;;6250200;22;21038;-79
2022/10/19 03:22:39;;;;;;;1.23;0.60;;;9.80;99.90;;;;;;6241618;22;20389;-79
2022/10/19 03:25:06;;;;;;;1.48;1.10;;;9.90;99.90;;;;;;6240594;23;20464;-78
2022/10/19 03:27:33;;;;;;;3.28;0.90;;;10.00;99.90;;;;;;6239816;23;20440;-79
2022/10/19 03:30:06;;;;;;;0.85;0.85;;;10.10;99.90;;;;;;6240810;23;20449;-79
2022/10/19 03:32:32;;;;;;;0.82;0.82;;;10.10;99.90;;;;;;6240835;22;20385;-79
2022/10/19 03:34:59;;;;;;;0.82;0.82;;;10.20;99.90;;;;;;6251042;23;20389;-79
2022/10/19 03:37:26;;;;;;;0.90;0.90;;;10.30;99.90;;;;;;6243119;23;20425;-79
2022/10/19 03:39:52;;;;;;;1.17;0.90;;;10.30;99.90;;;;;;6247258;23;20385;-79
2022/10/19 03:42:19;;;;;;;1.42;1.20;;;10.40;99.90;;;;;;6251192;23;20749;-79
2022/10/19 03:44:45;;;;;;;1.30;1.20;;;10.50;99.90;;;;;;6240078;23;20421;-76
2022/10/19 03:47:12;;;;;;;0.70;0.70;;;10.50;99.90;;;;;;6240837;23;20394;-77
2022/10/19 03:49:39;;;;;;;5.38;1.33;;;10.50;99.90;;;;;;6238807;23;20405;-78
2022/10/19 03:52:08;;;;;;;1.23;1.13;;;10.60;99.90;;;;;;6238850;23;20861;-77
2022/10/19 03:54:35;;;;;;;1.23;1.15;;;10.60;99.90;;;;;;6238528;23;20393;-78
2022/10/19 03:57:04;;;;;;;1.10;1.10;;;10.60;99.90;;;;;;6239223;23;20386;-78
2022/10/19 03:59:34;;;;;;;0.88;0.88;;;10.50;99.90;;;;;;6239037;23;20757;-78
2022/10/19 04:02:00;;;;;;;2.20;1.40;;;10.50;99.90;;;;;;6240673;23;20471;-78
2022/10/19 04:04:27;;;;;;;1.60;1.27;;;10.50;99.90;;;;;;6248136;23;20394;-78
2022/10/19 04:06:54;;;;;;;0.80;0.80;;;10.50;99.90;;;;;;6239351;23;20392;-78
2022/10/19 04:09:21;;;;;;;1.23;1.20;;;10.40;99.90;;;;;;6239078;23;20455;-78
2022/10/19 04:11:49;;;;;;;0.98;0.98;;;10.40;99.90;;;;;;6239140;23;20382;-79
2022/10/19 04:14:18;;;;;;;1.27;1.17;;;10.20;99.90;;;;;;6237617;23;20467;-79
2022/10/19 04:16:59;;;;;;;2.08;1.00;;;10.10;99.90;;;;;;6216300;23;20440;-79
2022/10/19 04:19:26;;;;;;;1.00;0.90;;;10.00;99.90;;;;;;6250818;22;20393;-79
2022/10/19 04:21:52;;;;;;;1.30;1.20;;;10.00;99.90;;;;;;6238976;23;20440;-79
2022/10/19 04:24:19;;;;;;;1.35;1.25;;;10.00;99.90;;;;;;6249556;23;20386;-79
2022/10/19 04:26:51;;;;;;;1.15;1.10;;;10.00;99.90;;;;;;6240528;22;20385;-78
2022/10/19 04:29:20;;;;;;;1.07;1.07;;;9.90;99.90;;;;;;6248494;23;20390;-79
2022/10/19 04:31:52;;;;;;;1.65;1.55;;;9.90;99.90;;;;;;6248518;23;20468;-78
2022/10/19 04:34:19;;;;;;;1.77;1.45;;;9.80;99.90;;;;;;6248308;23;20390;-78
2022/10/19 04:36:45;;;;;;;1.60;1.50;;;9.80;99.90;;;;;;6240312;22;20390;-78
2022/10/19 04:39:12;;;;;;;1.60;1.50;;;9.80;99.90;;;;;;6238587;23;20466;-78
2022/10/19 04:41:39;;;;;;;1.10;1.10;;;9.80;99.90;;;;;;6250781;22;20386;-79
2022/10/19 04:44:06;;;;;;;1.60;1.50;;;9.80;99.90;;;;;;6239757;23;20390;-78
2022/10/19 04:46:33;;;;;;;1.13;1.02;;;9.80;99.90;;;;;;6239070;23;20394;-79
2022/10/19 04:49:03;;;;;;;2.08;1.10;;;10.00;99.90;;;;;;6240284;23;20386;-79
2022/10/19 04:51:29;;;;;;;2.95;1.35;;;10.10;99.90;;;;;;6238332;23;20485;-78
2022/10/19 04:53:57;;;;;;;1.40;1.30;;;10.20;99.90;;;;;;6238098;23;20412;-78
2022/10/19 04:56:27;;;;;;;1.48;1.25;;;10.40;99.90;;;;;;6238497;23;20392;-79
2022/10/19 04:58:59;;;;;;;1.43;1.40;;;10.50;99.90;;;;;;6240475;22;20483;-78
2022/10/19 05:01:27;;;;;;;0.93;0.93;;;10.60;99.90;;;;;;6249856;22;20385;-79
2022/10/19 05:03:56;;;;;;;1.57;1.30;;;10.70;99.90;;;;;;6238216;23;20393;-79
2022/10/19 05:06:29;;;;;;;1.25;1.25;;;10.70;99.90;;;;;;6239908;22;20728;-79
2022/10/19 05:08:57;;;;;;;1.13;0.95;;;10.80;99.90;;;;;;6240198;22;20393;-79
2022/10/19 05:11:26;;;;;;;1.10;1.02;;;10.80;99.90;;;;;;6249836;22;20465;-79
2022/10/19 05:13:53;;;;;;;2.35;1.30;;;10.80;99.90;;;;;;6237862;23;20386;-79
2022/10/19 05:16:21;;;;;;;1.50;1.40;;;10.80;99.90;;;;;;6250358;22;20382;-79
2022/10/19 05:18:50;;;;;;;1.42;1.15;;;10.90;99.90;;;;;;6240842;23;20392;-79
2022/10/19 05:21:20;;;;;;;1.67;1.58;;;10.90;99.90;;;;;;6250823;23;20386;-79
2022/10/19 05:23:51;;;;;;;3.10;1.08;;;10.90;99.90;;;;;;6251183;23;20377;-79
2022/10/19 05:26:23;;;;;;;2.40;1.17;;;10.90;99.90;;;;;;6243353;22;20389;-79
2022/10/19 05:28:56;;;;;;;1.33;1.23;;;10.90;99.90;;;;;;6243346;22;20625;-79
2022/10/19 05:31:27;;;;;;;1.63;1.50;;;10.90;99.90;;;;;;6240635;23;20397;-79
2022/10/19 05:33:58;;;;;;;1.75;1.50;;;10.90;99.90;;;;;;6249887;23;20696;-78
2022/10/19 05:36:35;;;;;;;1.67;1.58;;;11.00;99.90;;;;;;6250428;23;20381;-79
2022/10/19 05:39:14;;;;;;;1.80;1.70;;;11.00;99.90;;;;;;6241854;22;20909;-79
2022/10/19 05:41:45;;;;;;;2.10;1.63;;;10.90;99.90;;;;;;6241759;22;20754;-79
2022/10/19 05:44:30;;;;;;;1.97;1.27;;;10.90;99.90;;;;;;6239618;23;20865;-79
2022/10/19 05:46:57;;;;;;;2.42;1.52;;;10.90;99.90;;;;;;6241986;23;20426;-79
2022/10/19 05:49:26;;;;;;;1.58;1.58;;;10.90;99.90;;;;;;6240164;23;20866;-79
2022/10/19 05:51:53;;;;;;;1.83;1.50;;;11.00;99.90;;;;;;6241696;23;20396;-79
2022/10/19 05:54:20;;;;;;;1.73;1.52;;;10.90;99.90;;;;;;6240579;23;20444;-79
2022/10/19 05:56:52;;;;;;;1.30;1.20;;;10.90;99.90;;;;;;6242832;22;20477;-80
2022/10/19 05:59:22;;;;;;;1.40;1.30;;;10.90;99.90;;;;;;6244748;23;20948;-79
2022/10/19 06:01:49;;;;;;;2.10;2.00;;;10.90;99.90;;;;;;6241501;23;20943;-80
2022/10/19 06:04:16;;;;;;;1.83;1.20;;;10.90;99.90;;;;;;6254634;23;20769;-79
2022/10/19 06:06:48;;;;;;;1.20;1.20;;;10.90;99.90;;;;;;6215551;23;20394;-79
2022/10/19 06:09:14;;;;;;;1.35;1.25;;;10.90;99.90;;;;;;6187632;23;20453;-80
2022/10/19 06:11:42;;;;;;;1.50;1.40;;;10.90;99.90;;;;;;6184673;23;20392;-80
2022/10/19 06:14:15;;;;;;;1.80;1.70;;;11.00;99.90;;;;;;6210436;23;20403;-80
2022/10/19 06:16:42;;;;;;;1.23;1.13;;;11.00;99.90;;;;;;6210780;23;20421;-80
2022/10/19 06:19:11;;;;;;;1.65;1.45;;;11.00;99.90;;;;;;6211337;23;20399;-79
2022/10/19 06:21:42;;;;;;;1.77;1.67;;;11.00;99.90;;;;;;6211063;23;20392;-80
2022/10/19 06:24:12;;;;;;;1.45;1.35;;;11.10;99.90;;;;;;6184924;23;20430;-80
2022/10/19 06:26:38;;;;;;;1.65;1.55;;;11.00;99.90;;;;;;6211290;23;20446;-80
2022/10/19 06:29:05;;;;;;;1.88;1.77;;;11.00;99.90;;;;;;6184414;23;20387;-80
2022/10/19 06:31:34;;;;;;;2.10;1.48;;;11.10;99.90;;;;;;6210945;23;20392;-80
2022/10/19 06:34:07;;;;;;;2.35;2.05;;;11.20;99.90;;;;;;6220291;23;20470;-80
2022/10/19 06:36:33;;;;;;;1.65;1.55;;;11.20;99.90;;;;;;6184409;23;20425;-78
2022/10/19 06:39:01;;;;;;;2.97;2.15;;;11.20;99.90;;;;;;6184621;23;20476;-79
2022/10/19 06:41:29;;;;;;;2.20;2.03;;;11.20;99.90;;;;;;6210818;23;20391;-78
2022/10/19 06:43:56;;;;;;;2.53;2.03;;;11.20;99.90;;;;;;6184263;23;20402;-79
2022/10/19 06:46:24;;;;;;;2.30;2.00;;;11.20;99.90;;;;;;6211042;23;20457;-80
2022/10/19 06:48:59;;;;;;;1.63;1.53;;;11.30;99.90;;;;;;6211360;23;20395;-80
2022/10/19 06:51:28;;;;;;;2.25;2.05;;;11.30;96.70;;;;;;6211878;23;20502;-78
2022/10/19 06:53:55;;;;;;;2.78;1.77;;;11.30;75.00;;;;;;6222304;23;20877;-78
2022/10/19 06:56:24;;;;;;;2.58;1.77;;;11.30;34.60;;;;;;6218592;23;20494;-79
2022/10/19 06:58:54;;;;;;;2.30;2.10;;;11.20;1.00;;;;;;6211122;23;20697;-79
2022/10/19 07:01:24;;;;;;;2.00;1.80;;;11.20;1.00;;;;;;6184088;23;20398;-79
2022/10/19 07:03:51;;;;;;;3.53;1.97;;;11.10;1.00;;;;;;6183661;23;20395;-79
2022/10/19 07:06:21;;;;;;;2.67;2.42;;;11.10;1.00;;;;;;6236907;23;20443;-79
2022/10/19 07:08:48;;;;;;;3.47;2.03;;;11.20;1.00;;;;;;6239795;23;20479;-78
2022/10/19 07:11:56;;;;;;;2.13;1.80;;;11.30;1.00;;;;;;6249105;23;20390;-86
2022/10/19 07:14:27;;;;;;;2.13;1.77;;;11.60;1.00;;;;;;6240222;23;20408;-79
2022/10/19 07:16:56;;;;;;;4.65;2.35;;;11.90;1.00;;;;;;6240615;23;20398;-79
2022/10/19 07:19:26;;;;;;;2.67;2.20;;;12.30;1.00;;;;;;6250732;23;20416;-81
2022/10/19 07:21:52;;;;;;;2.03;1.45;;;12.80;99.90;;;;;;6250732;23;20782;-80
2022/10/19 07:24:19;;;;;;;2.22;1.83;;;13.20;99.90;;;;;;6240022;23;20410;-80
2022/10/19 07:26:46;;;;;;;1.90;1.70;;;13.30;1.00;;;;;;6238912;23;20477;-81
2022/10/19 07:29:12;;;;;;;1.77;1.67;;;13.40;1.00;;;;;;6240882;23;20382;-81
2022/10/19 07:31:40;;;;;;;2.10;1.50;;;13.30;99.90;;;;;;6249464;23;20385;-81
2022/10/19 07:34:10;;;;;;;1.48;1.38;;;13.10;99.90;;;;;;6248397;23;20377;-81
2022/10/19 07:36:36;;;;;;;1.40;1.30;;;13.10;99.90;;;;;;6249644;23;20404;-81
2022/10/19 07:39:05;;;;;;;1.70;1.58;;;13.00;99.90;;;;;;6250778;23;20754;-80
2022/10/19 07:41:33;;;;;;;2.30;1.67;;;12.90;99.90;;;;;;6238980;23;20795;-81
2022/10/19 07:44:00;;;;;;;1.67;1.58;;;13.20;99.90;;;;;;6238973;23;20390;-80
2022/10/19 07:46:32;;;;;;;3.15;1.45;;;13.50;73.20;;;;;;6240801;22;20669;-81
2022/10/19 07:48:59;;;;;;;1.85;1.75;;;13.70;1.00;;;;;;6251312;22;20439;-80
2022/10/19 07:51:26;;;;;;;2.20;1.63;;;13.90;1.00;;;;;;6251610;22;20396;-81
2022/10/19 07:53:58;;;;;;;1.77;1.52;;;13.90;1.00;;;;;;6239074;23;20382;-80
2022/10/19 07:56:26;;;;;;;1.38;1.10;;;14.00;1.00;;;;;;6240298;23;20398;-80
2022/10/19 07:58:55;;;;;;;1.45;1.27;;;14.10;1.00;;;;;;6213523;23;20381;-80
2022/10/19 08:01:28;;;;;;;1.95;1.55;;;14.40;1.00;;;;;;6240793;22;20389;-81
2022/10/19 08:03:56;;;;;;;1.40;1.27;;;14.40;1.00;;;;;;6250322;23;20389;-81
2022/10/19 08:06:43;;;;;;;1.52;1.42;;;14.40;1.00;;;;;;6240129;23;20484;-80
2022/10/19 08:09:13;;;;;;;1.75;1.55;;;14.10;99.90;;;;;;6239097;23;20398;-81
2022/10/19 08:11:59;;;;;;;1.60;1.50;;;14.00;99.90;;;;;;6238460;22;20746;-80
2022/10/19 08:14:26;;;;;;;1.35;1.25;;;13.70;99.90;;;;;;6239398;23;20967;-80
2022/10/19 08:16:52;;;;;;;1.60;1.50;;;13.60;1.00;;;;;;6239073;23;20401;-81
2022/10/19 08:19:22;;;;;;;1.92;1.73;;;13.50;1.00;;;;;;6249242;23;20392;-80
2022/10/19 08:21:52;;;;;;;1.65;1.48;;;13.40;1.00;;;;;;6240198;22;20440;-77
2022/10/19 08:24:20;;;;;;;1.55;1.45;;;13.30;1.00;;;;;;6239921;23;20386;-81
2022/10/19 08:26:50;;;;;;;1.55;1.45;;;13.40;1.00;;;;;;6250118;22;20436;-80
2022/10/19 08:29:20;;;;;;;1.75;1.65;;;13.50;1.00;;;;;;6250418;22;20778;-80
2022/10/19 08:31:48;;;;;;;1.65;1.30;;;13.70;1.00;;;;;;6238565;23;20758;-80
2022/10/19 08:34:25;;;;;;;2.05;1.50;;;13.90;1.00;;;;;;6250001;22;20783;-79
2022/10/19 08:36:52;;;;;;;1.38;1.33;;;14.20;1.00;;;;;;6249014;23;20420;-81
2022/10/19 08:39:22;;;;;;;2.00;1.60;;;14.60;99.90;;;;;;6240486;23;20389;-80
2022/10/19 08:42:05;;;;;;;2.58;1.48;;;14.60;99.90;;;;;;6240378;22;20451;-80
2022/10/19 08:45:06;;;;;;;1.50;1.40;;;14.50;99.90;;;;;;6248303;23;20381;-80
2022/10/19 08:47:53;;;;;;;1.77;1.60;;;14.50;99.90;;;;;;6250494;22;20396;-80
2022/10/19 08:50:28;;;;;;;1.35;1.25;;;14.40;99.90;;;;;;6250747;22;20392;-80
2022/10/19 08:53:06;;;;;;;1.17;1.08;;;14.30;99.90;;;;;;6241228;22;20432;-80
2022/10/19 08:55:54;;;;;;;1.40;1.30;;;14.40;99.90;;;;;;6242345;22;20389;-80
2022/10/19 08:58:52;;;;;;;1.27;1.10;;;14.40;99.90;;;;;;6241746;23;20390;-81
2022/10/19 09:01:28;;;;;;;1.98;1.13;;;14.70;99.90;;;;;;6242277;22;20748;-80
2022/10/19 09:04:02;;;;;;;1.70;1.50;;;14.80;99.90;;;;;;6242056;22;20440;-80
2022/10/19 09:06:50;;;;;;;1.73;1.40;;;14.90;99.90;;;;;;6241869;22;20444;-80
2022/10/19 09:09:19;;;;;;;1.30;1.13;;;14.90;99.90;;;;;;6240641;23;20393;-80
2022/10/19 09:11:49;;;;;;;1.60;1.30;;;14.90;99.90;;;;;;6252857;22;20416;-80
2022/10/19 09:14:37;;;;;;;1.47;1.20;;;14.90;99.90;;;;;;6241765;22;20389;-80
2022/10/19 09:17:11;;;;;;;1.23;1.13;;;15.10;99.90;;;;;;6250544;23;20440;-80
2022/10/19 09:19:37;;;;;;;1.60;1.30;;;15.20;99.90;;;;;;6242259;22;20397;-80
2022/10/19 09:22:15;;;;;;;1.83;1.40;;;15.50;99.90;;;;;;6240121;23;20389;-80
2022/10/19 09:24:50;;;;;;;1.15;1.13;;;16.10;99.90;;;;;;6241332;23;20390;-80
2022/10/19 09:27:28;;;;;;;1.20;1.10;;;16.30;99.90;;;;;;6240318;23;20392;-81
2022/10/19 09:29:57;;;;;;;1.58;1.48;;;16.70;99.90;;;;;;6242215;22;20396;-80
2022/10/19 09:32:30;;;;;;;1.67;1.25;;;17.00;99.90;;;;;;6242265;22;20400;-80
2022/10/19 09:35:15;;;;;;;1.05;1.05;;;17.10;99.90;;;;;;6241584;22;20463;-80
2022/10/19 09:37:46;;;;;;;1.30;1.20;;;17.20;99.90;;;;;;6240327;23;20392;-80
2022/10/19 09:40:26;;;;;;;0.98;0.98;;;17.00;99.90;;;;;;6241811;22;20922;-80
2022/10/19 09:42:57;;;;;;;1.00;1.00;;;16.80;99.90;;;;;;6249757;23;20385;-80
2022/10/19 09:45:55;;;;;;;1.40;1.30;;;16.40;99.90;;;;;;6252527;22;20390;-80
2022/10/19 09:48:27;;;;;;;1.38;1.27;;;15.80;99.90;;;;;;6215445;23;20389;-80
2022/10/19 09:51:00;;;;;;;1.75;1.50;;;15.90;99.90;;;;;;6252511;22;20640;-80
2022/10/19 09:53:29;;;;;;;1.27;1.23;;;15.80;99.90;;;;;;6240072;23;20393;-80
2022/10/19 09:56:07;;;;;;;1.20;1.10;;;15.90;99.90;;;;;;6240595;23;20394;-79
2022/10/19 09:58:53;;;;;;;1.90;1.50;;;16.00;99.90;;;;;;6241888;22;20390;-80
2022/10/19 10:01:34;;;;;;;1.23;1.23;;;16.20;99.90;;;;;;6242312;22;20394;-79
2022/10/19 10:04:14;;;;;;;3.38;1.45;;;16.10;99.90;;;;;;6240730;23;20385;-80
2022/10/19 10:06:46;;;;;;;1.35;1.25;;;16.00;99.90;;;;;;6244266;22;20386;-80
2022/10/19 10:09:25;;;;;;;1.45;1.17;;;15.70;99.90;;;;;;6270029;22;20416;-80
2022/10/19 10:11:53;;;;;;;1.45;1.35;;;15.60;99.90;;;;;;6255032;23;20420;-80
2022/10/19 10:14:35;;;;;;;1.33;1.23;;;15.60;99.90;;;;;;6251422;22;20965;-79
2022/10/19 10:17:12;;;;;;;1.58;1.35;;;15.80;99.90;;;;;;6252009;22;20444;-79
2022/10/19 10:19:57;;;;;;;2.63;1.65;;;15.90;99.90;;;;;;6241400;22;21151;-78
2022/10/19 10:22:30;;;;;;;1.65;1.55;;;15.90;99.90;;;;;;6250347;23;20381;-78
2022/10/19 10:24:57;;;;;;;1.03;0.90;;;15.80;99.90;;;;;;6241049;22;20382;-78
2022/10/19 10:27:32;;;;;;;1.20;1.15;;;15.80;99.90;;;;;;6242054;22;20394;-78
2022/10/19 10:30:08;;;;;;;1.08;1.08;;;15.90;99.90;;;;;;6240864;22;20603;-77
2022/10/19 10:32:47;;;;;;;2.43;1.33;;;16.00;99.90;;;;;;6240049;23;20593;-77
2022/10/19 10:35:22;;;;;;;1.20;1.10;;;15.70;99.90;;;;;;6240661;22;20870;-79
2022/10/19 10:37:49;;;;;;;1.07;1.00;;;15.70;99.90;;;;;;6239548;23;20774;-79
2022/10/19 10:40:26;;;;;;;1.58;1.20;;;15.80;99.90;;;;;;6241183;22;20389;-79
2022/10/19 10:43:01;;;;;;;2.85;1.55;;;15.80;99.90;;;;;;6241512;22;20508;-79
2022/10/19 10:45:31;;;;;;;1.60;1.30;;;16.10;99.90;;;;;;6241310;22;20393;-79
2022/10/19 10:48:18;;;;;;;1.40;1.30;;;16.10;99.90;;;;;;6250054;23;20394;-79
2022/10/19 10:50:51;;;;;;;2.72;1.25;;;16.10;99.90;;;;;;6241325;23;20613;-79
2022/10/19 10:53:37;;;;;;;1.52;1.33;;;16.20;99.90;;;;;;6240634;22;20394;-79
2022/10/19 10:56:27;;;;;;;1.42;1.30;;;16.30;99.90;;;;;;6241283;22;20394;-79
2022/10/19 10:58:58;;;;;;;1.58;1.48;;;16.30;99.90;;;;;;6240837;22;20485;-79
2022/10/19 11:01:36;;;;;;;1.60;1.50;;;15.90;99.90;;;;;;6251804;23;20744;-79
2022/10/19 11:04:18;;;;;;;1.52;1.30;;;15.90;99.90;;;;;;6240673;22;20911;-79
2022/10/19 11:06:55;;;;;;;2.17;1.77;;;16.20;99.90;;;;;;6239405;23;20402;-79
2022/10/19 11:09:27;;;;;;;1.60;1.40;;;16.40;99.90;;;;;;6250775;23;20499;-79
2022/10/19 11:12:02;;;;;;;1.73;1.30;;;16.40;99.90;;;;;;6239933;23;20389;-79
2022/10/19 11:14:38;;;;;;;2.17;1.75;;;16.50;99.90;;;;;;6239712;22;20393;-79
2022/10/19 11:17:21;;;;;;;1.47;1.27;;;16.70;99.90;;;;;;6240662;23;20988;-79
2022/10/19 11:19:50;;;;;;;1.25;1.15;;;16.70;99.90;;;;;;6239221;23;20909;-79
2022/10/19 11:22:39;;;;;;;1.60;1.50;;;16.50;99.90;;;;;;6241093;22;20393;-79
2022/10/19 11:25:33;;;;;;;1.70;1.30;;;16.70;99.90;;;;;;6240560;22;20427;-79
2022/10/19 11:28:19;;;;;;;1.65;1.55;;;16.60;99.90;;;;;;6240706;23;20389;-79
2022/10/19 11:31:09;;;;;;;2.20;1.13;;;16.50;99.90;;;;;;6240956;23;20389;-78
2022/10/19 11:33:56;;;;;;;1.30;1.20;;;16.30;99.90;;;;;;6240302;22;20440;-79
2022/10/19 11:36:45;;;;;;;1.48;1.38;;;16.20;99.90;;;;;;6238881;23;20452;-79
2022/10/19 11:39:38;;;;;;;2.30;1.40;;;16.30;99.90;;;;;;6238730;23;20443;-79
2022/10/19 11:42:41;;;;;;;2.08;1.70;;;16.50;99.90;;;;;;6237203;23;20873;-79
2022/10/19 11:45:49;;;;;;;3.27;1.50;;;16.50;99.90;;;;;;6238546;23;20804;-79
2022/10/19 11:48:28;;;;;;;1.25;1.15;;;16.50;99.90;;;;;;6117336;23;20404;-79
2022/10/19 11:51:21;;;;;;;1.17;1.13;;;16.40;99.90;;;;;;6117755;23;20451;-79
2022/10/19 11:53:54;;;;;;;1.40;1.30;;;16.40;99.90;;;;;;6117085;23;20456;-79
2022/10/19 11:56:37;;;;;;;2.97;1.50;;;16.50;99.90;;;;;;6117698;23;20770;-79
2022/10/19 11:59:53;;;;;;;1.15;1.15;;;16.60;99.90;;;;;;6117192;23;20389;-78
2022/10/19 12:03:17;;;;;;;2.08;1.27;;;16.60;99.90;;;;;;6117538;23;20394;-78
2022/10/19 12:06:15;;;;;;;1.40;1.30;;;16.60;99.90;;;;;;6117429;23;20396;-79
2022/10/19 12:08:57;;;;;;;1.15;1.05;;;16.60;99.90;;;;;;6117735;23;21060;-79
2022/10/19 12:11:36;;;;;;;1.35;1.10;;;16.60;99.90;;;;;;6117530;23;20765;-79
2022/10/19 12:14:12;;;;;;;1.80;1.05;;;16.50;99.90;;;;;;6116649;23;20396;-79
2022/10/19 12:16:43;;;;;;;1.50;1.40;;;16.50;99.90;;;;;;6117760;23;20396;-79
2022/10/19 12:19:38;;;;;;;1.20;1.10;;;16.60;99.90;;;;;;6117324;23;20404;-79
2022/10/19 12:22:26;;;;;;;0.82;0.82;;;16.50;99.90;;;;;;6117413;23;20392;-79
2022/10/19 12:25:00;;;;;;;1.60;1.20;;;16.30;99.90;;;;;;6184271;23;20553;-78
2022/10/19 12:27:44;;;;;;;1.80;1.33;;;16.20;99.90;;;;;;6239100;23;20725;-79
2022/10/19 12:30:18;;;;;;;1.10;1.10;;;16.10;99.90;;;;;;6242134;23;20857;-79
2022/10/19 12:32:57;;;;;;;0.95;0.95;;;16.10;99.90;;;;;;6242370;23;20389;-79
2022/10/19 12:35:34;;;;;;;1.60;1.23;;;16.10;99.90;;;;;;6243247;23;20790;-79
2022/10/19 12:38:28;;;;;;;1.80;1.02;;;16.20;99.90;;;;;;6243710;22;20473;-79
2022/10/19 12:41:37;;;;;;;0.90;0.90;;;16.20;99.90;;;;;;6236033;23;20908;-79
2022/10/19 12:44:28;;;;;;;1.25;1.17;;;16.30;99.90;;;;;;6243190;23;20392;-79
2022/10/19 12:46:59;;;;;;;1.55;1.45;;;16.20;99.90;;;;;;6253759;23;20393;-79
2022/10/19 12:49:35;;;;;;;1.52;1.27;;;16.20;99.90;;;;;;6243540;22;20395;-78
2022/10/19 12:52:06;;;;;;;1.05;1.05;;;16.20;99.90;;;;;;6252148;23;20440;-79
2022/10/19 12:54:38;;;;;;;0.90;0.90;;;16.20;99.90;;;;;;6243410;22;20410;-79
2022/10/19 13:00:21;;;;;;;0.80;0.80;;;16.20;99.90;;;;;;6243796;22;20385;-79
2022/10/19 13:03:02;;;;;;;1.30;0.97;;;16.20;99.90;;;;;;6243572;22;20456;-79
2022/10/19 13:05:31;;;;;;;1.07;1.03;;;16.30;99.90;;;;;;6241676;23;20451;-79
2022/10/19 13:08:03;;;;;;;1.60;1.10;;;16.20;99.90;;;;;;6243222;22;21180;-79
2022/10/19 13:10:33;;;;;;;1.00;0.95;;;16.10;99.90;;;;;;6243333;22;20434;-80
2022/10/19 13:13:01;;;;;;;0.80;0.80;;;16.20;99.90;;;;;;6251243;23;20765;-79
2022/10/19 13:15:40;;;;;;;0.85;0.85;;;16.30;99.90;;;;;;6243582;22;20439;-80
2022/10/19 13:18:33;;;;;;;1.45;0.90;;;16.20;99.90;;;;;;6243282;23;20460;-80
2022/10/19 13:20:59;;;;;;;1.05;0.95;;;16.10;99.90;;;;;;6242920;23;20390;-79
2022/10/19 13:23:29;;;;;;;1.23;1.10;;;16.10;99.90;;;;;;6241286;23;20393;-80
2022/10/19 13:26:36;;;;;;;0.82;0.82;;;15.90;99.90;;;;;;6243291;23;20393;-79
2022/10/19 13:29:22;;;;;;;1.20;1.15;;;15.90;99.90;;;;;;6243409;22;20389;-79